This is the latest recevied weather packets stored in our database for station/object K5NWZ. If no packets are shown the sender has not sent any weather packets the latest 10 day(s).
| Time | Temp. | Humidity | Pressure | Rain* | Wind** | Luminosity | Snow |
|---|---|---|---|---|---|---|---|
| 1777834556 | 22.78° C | 17% | 1022.4 hPa | 0 mm | - | 397 W/m² | - |
| 1777834256 | 22.78° C | 17% | 1022 hPa | 0 mm | - | 375 W/m² | - |
| 1777833952 | 22.78° C | 18% | 1022 hPa | 0 mm | - | 387 W/m² | - |
| 1777833649 | 22.78° C | 19% | 1022.3 hPa | 0 mm | - | 318 W/m² | - |
| 1777833345 | 23.33° C | 16% | 1022.4 hPa | 0 mm | - | 315 W/m² | - |
| 1777833043 | 22.78° C | 17% | 1022.1 hPa | 0 mm | - | 392 W/m² | - |
| 1777832741 | 22.22° C | 16% | 1022 hPa | 0 mm | - | 406 W/m² | - |
| 1777832439 | 22.78° C | 16% | 1022.4 hPa | 0 mm | - | 301 W/m² | - |
| 1777832135 | 22.78° C | 18% | 1022.7 hPa | 0 mm | - | 275 W/m² | - |
| 1777831832 | 23.33° C | 16% | 1022.6 hPa | 0 mm | - | 326 W/m² | - |
| 1777831529 | 22.78° C | 16% | 1022.6 hPa | 0 mm | - | 487 W/m² | - |
| 1777831226 | 23.33° C | 16% | 1022.7 hPa | 0 mm | - | 382 W/m² | - |
| 1777830924 | 23.33° C | 17% | 1022.8 hPa | 0 mm | - | 460 W/m² | - |
| 1777830620 | 23.33° C | 19% | 1023.3 hPa | 0 mm | - | 388 W/m² | - |
| 1777830318 | 22.78° C | 20% | 1023 hPa | 0 mm | - | 370 W/m² | - |
| 1777830014 | 21.67° C | 20% | 1023.2 hPa | 0 mm | - | 505 W/m² | - |
| 1777829709 | 21.67° C | 21% | 1023.2 hPa | 0 mm | - | 359 W/m² | - |
| 1777829406 | 21.67° C | 20% | 1023.4 hPa | 0 mm | - | 485 W/m² | - |
| 1777829103 | 21.67° C | 20% | 1023.3 hPa | 0 mm | - | 536 W/m² | - |
| 1777828800 | 22.78° C | 21% | 1023.7 hPa | 0 mm | - | 374 W/m² | - |
| 1777828496 | 21.67° C | 20% | 1023.7 hPa | 0 mm | - | 530 W/m² | - |
| 1777828194 | 22.22° C | 20% | 1023.7 hPa | 0 mm | - | 498 W/m² | - |
| 1777827890 | 21.67° C | 22% | 1023.7 hPa | 0 mm | - | 610 W/m² | - |
| 1777827582 | 21.67° C | 21% | 1023.9 hPa | 0 mm | - | 491 W/m² | - |
| 1777827280 | 21.11° C | 22% | 1024 hPa | 0 mm | - | 658 W/m² | - |
* Rain latest hour (hover to see other rain measurements)
** Current wind speed in m/s (hover to see current wind gust speed)